sensor_id;sensor_type;location;lat;lon;timestamp;pressure;altitude;pressure_sealevel;temperature;humidity
6030;BME280;3043;42.682;23.376;2022-11-03T00:01:08;95459.19;;;16.87;73.16
6030;BME280;3043;42.682;23.376;2022-11-03T00:03:34;95463.56;;;16.86;73.74
6030;BME280;3043;42.682;23.376;2022-11-03T00:06:00;95465.03;;;16.93;73.59
6030;BME280;3043;42.682;23.376;2022-11-03T00:08:32;95472.66;;;16.98;72.96
6030;BME280;3043;42.682;23.376;2022-11-03T00:11:02;95473.97;;;17.08;72.63
6030;BME280;3043;42.682;23.376;2022-11-03T00:13:28;95466.22;;;16.85;74.03
6030;BME280;3043;42.682;23.376;2022-11-03T00:15:53;95469.78;;;16.84;74.61
6030;BME280;3043;42.682;23.376;2022-11-03T00:18:18;95471.84;;;16.76;74.57
6030;BME280;3043;42.682;23.376;2022-11-03T00:20:44;95476.56;;;16.88;74.57
6030;BME280;3043;42.682;23.376;2022-11-03T00:23:09;95483.38;;;16.92;74.55
6030;BME280;3043;42.682;23.376;2022-11-03T00:25:35;95478.09;;;16.93;75.26
6030;BME280;3043;42.682;23.376;2022-11-03T00:28:00;95474.75;;;16.90;76.22
6030;BME280;3043;42.682;23.376;2022-11-03T00:30:25;95473.19;;;16.86;79.45
6030;BME280;3043;42.682;23.376;2022-11-03T00:32:51;95471.19;;;16.91;80.47
6030;BME280;3043;42.682;23.376;2022-11-03T00:35:16;95467.28;;;16.81;83.64
6030;BME280;3043;42.682;23.376;2022-11-03T00:37:42;95470.28;;;16.72;85.81
6030;BME280;3043;42.682;23.376;2022-11-03T00:40:07;95471.25;;;16.69;86.79
6030;BME280;3043;42.682;23.376;2022-11-03T00:42:35;95471.84;;;16.76;86.50
6030;BME280;3043;42.682;23.376;2022-11-03T00:45:01;95468.78;;;16.86;85.61
6030;BME280;3043;42.682;23.376;2022-11-03T00:47:27;95475.00;;;16.84;84.78
6030;BME280;3043;42.682;23.376;2022-11-03T00:49:52;95471.19;;;16.91;83.63
6030;BME280;3043;42.682;23.376;2022-11-03T00:52:18;95480.59;;;16.75;83.86
6030;BME280;3043;42.682;23.376;2022-11-03T00:54:43;95491.91;;;16.75;83.79
6030;BME280;3043;42.682;23.376;2022-11-03T00:57:08;95481.47;;;16.75;83.73
6030;BME280;3043;42.682;23.376;2022-11-03T00:59:34;95480.34;;;16.81;83.39
6030;BME280;3043;42.682;23.376;2022-11-03T01:01:59;95481.41;;;16.77;83.44
6030;BME280;3043;42.682;23.376;2022-11-03T01:04:25;95482.16;;;16.79;84.20
6030;BME280;3043;42.682;23.376;2022-11-03T01:07:08;95480.72;;;16.72;86.91
6030;BME280;3043;42.682;23.376;2022-11-03T01:09:36;95485.41;;;16.64;89.27
6030;BME280;3043;42.682;23.376;2022-11-03T01:17:07;95479.03;;;16.71;93.33
6030;BME280;3043;42.682;23.376;2022-11-03T01:19:32;95479.03;;;16.71;95.10
6030;BME280;3043;42.682;23.376;2022-11-03T01:21:58;95472.34;;;16.64;98.39
6030;BME280;3043;42.682;23.376;2022-11-03T01:24:23;95475.31;;;16.55;100.00
6030;BME280;3043;42.682;23.376;2022-11-03T01:26:49;95476.53;;;16.46;100.00
6030;BME280;3043;42.682;23.376;2022-11-03T01:29:15;95478.06;;;16.52;100.00
6030;BME280;3043;42.682;23.376;2022-11-03T01:31:40;95475.88;;;16.63;100.00
6030;BME280;3043;42.682;23.376;2022-11-03T01:34:06;95472.06;;;16.50;100.00
6030;BME280;3043;42.682;23.376;2022-11-03T01:36:31;95473.16;;;16.43;100.00
6030;BME280;3043;42.682;23.376;2022-11-03T01:38:57;95473.75;;;16.51;100.00
6030;BME280;3043;42.682;23.376;2022-11-03T01:41:25;95477.28;;;16.27;100.00
6030;BME280;3043;42.682;23.376;2022-11-03T01:44:24;95477.66;;;16.39;100.00
6030;BME280;3043;42.682;23.376;2022-11-03T01:46:58;95477.94;;;16.32;100.00
6030;BME280;3043;42.682;23.376;2022-11-03T01:52:18;95481.84;;;16.45;100.00
6030;BME280;3043;42.682;23.376;2022-11-03T01:54:49;95483.72;;;16.40;100.00
6030;BME280;3043;42.682;23.376;2022-11-03T01:57:21;95484.97;;;16.31;100.00
6030;BME280;3043;42.682;23.376;2022-11-03T01:59:49;95490.03;;;16.13;100.00
6030;BME280;3043;42.682;23.376;2022-11-03T02:02:14;95491.72;;;16.14;100.00
6030;BME280;3043;42.682;23.376;2022-11-03T02:04:40;95490.72;;;16.18;100.00
6030;BME280;3043;42.682;23.376;2022-11-03T02:09:35;95484.16;;;16.06;100.00
6030;BME280;3043;42.682;23.376;2022-11-03T02:12:00;95483.47;;;16.02;100.00
6030;BME280;3043;42.682;23.376;2022-11-03T02:14:42;95483.63;;;15.98;100.00
6030;BME280;3043;42.682;23.376;2022-11-03T02:17:11;95488.69;;;16.02;100.00
6030;BME280;3043;42.682;23.376;2022-11-03T02:19:44;95483.88;;;15.92;100.00
6030;BME280;3043;42.682;23.376;2022-11-03T02:25:04;95484.47;;;15.75;100.00
6030;BME280;3043;42.682;23.376;2022-11-03T02:27:33;95490.53;;;15.76;100.00
6030;BME280;3043;42.682;23.376;2022-11-03T02:29:59;95488.09;;;15.71;100.00
6030;BME280;3043;42.682;23.376;2022-11-03T02:32:28;95486.28;;;15.73;100.00
6030;BME280;3043;42.682;23.376;2022-11-03T02:37:35;95484.91;;;15.63;100.00
6030;BME280;3043;42.682;23.376;2022-11-03T02:40:05;95490.94;;;15.65;100.00
6030;BME280;3043;42.682;23.376;2022-11-03T02:42:34;95490.59;;;15.74;100.00
6030;BME280;3043;42.682;23.376;2022-11-03T02:45:04;95490.13;;;15.63;100.00
6030;BME280;3043;42.682;23.376;2022-11-03T02:47:31;95490.34;;;15.57;100.00
6030;BME280;3043;42.682;23.376;2022-11-03T02:49:59;95491.78;;;15.66;100.00
6030;BME280;3043;42.682;23.376;2022-11-03T02:55:17;95484.69;;;15.69;100.00
6030;BME280;3043;42.682;23.376;2022-11-03T02:57:53;95474.91;;;15.51;100.00
6030;BME280;3043;42.682;23.376;2022-11-03T03:00:22;95479.13;;;15.55;100.00
6030;BME280;3043;42.682;23.376;2022-11-03T03:02:58;95476.19;;;15.64;100.00
6030;BME280;3043;42.682;23.376;2022-11-03T03:05:31;95481.06;;;15.50;100.00
6030;BME280;3043;42.682;23.376;2022-11-03T03:08:01;95480.03;;;15.54;100.00
6030;BME280;3043;42.682;23.376;2022-11-03T03:10:32;95485.56;;;15.45;100.00
6030;BME280;3043;42.682;23.376;2022-11-03T03:13:00;95486.50;;;15.44;100.00
6030;BME280;3043;42.682;23.376;2022-11-03T03:20:57;95489.47;;;15.58;100.00
6030;BME280;3043;42.682;23.376;2022-11-03T03:23:30;95481.00;;;15.52;100.00
6030;BME280;3043;42.682;23.376;2022-11-03T03:26:01;95487.13;;;15.51;100.00
6030;BME280;3043;42.682;23.376;2022-11-03T03:28:38;95481.84;;;15.52;100.00
6030;BME280;3043;42.682;23.376;2022-11-03T03:31:09;95481.22;;;15.46;100.00
6030;BME280;3043;42.682;23.376;2022-11-03T03:33:36;95486.00;;;15.58;100.00
6030;BME280;3043;42.682;23.376;2022-11-03T03:36:06;95487.28;;;15.46;100.00
6030;BME280;3043;42.682;23.376;2022-11-03T03:38:37;95488.88;;;15.50;100.00
6030;BME280;3043;42.682;23.376;2022-11-03T03:41:06;95476.97;;;15.43;100.00
6030;BME280;3043;42.682;23.376;2022-11-03T03:43:33;95490.78;;;15.45;100.00
6030;BME280;3043;42.682;23.376;2022-11-03T03:46:19;95489.47;;;15.58;100.00
6030;BME280;3043;42.682;23.376;2022-11-03T03:48:46;95487.50;;;15.40;100.00
6030;BME280;3043;42.682;23.376;2022-11-03T03:51:12;95488.13;;;15.47;100.00
6030;BME280;3043;42.682;23.376;2022-11-03T03:53:38;95484.59;;;15.23;100.00
6030;BME280;3043;42.682;23.376;2022-11-03T03:56:04;95493.09;;;15.28;100.00
6030;BME280;3043;42.682;23.376;2022-11-03T03:58:30;95494.59;;;15.35;100.00
6030;BME280;3043;42.682;23.376;2022-11-03T04:00:55;95498.91;;;15.36;100.00
6030;BME280;3043;42.682;23.376;2022-11-03T04:03:23;95492.88;;;15.34;100.00
6030;BME280;3043;42.682;23.376;2022-11-03T04:05:50;95499.88;;;15.34;100.00
6030;BME280;3043;42.682;23.376;2022-11-03T04:08:17;95502.38;;;15.37;100.00
6030;BME280;3043;42.682;23.376;2022-11-03T04:10:43;95511.88;;;15.39;100.00
6030;BME280;3043;42.682;23.376;2022-11-03T04:13:27;95508.63;;;15.31;100.00
6030;BME280;3043;42.682;23.376;2022-11-03T04:16:11;95508.97;;;15.22;100.00
6030;BME280;3043;42.682;23.376;2022-11-03T04:18:55;95505.16;;;15.32;100.00
6030;BME280;3043;42.682;23.376;2022-11-03T04:21:39;95501.72;;;15.30;100.00
6030;BME280;3043;42.682;23.376;2022-11-03T04:24:23;95501.59;;;15.09;100.00
6030;BME280;3043;42.682;23.376;2022-11-03T04:26:49;95504.31;;;14.80;100.00
6030;BME280;3043;42.682;23.376;2022-11-03T04:29:15;95495.66;;;14.79;100.00
6030;BME280;3043;42.682;23.376;2022-11-03T04:31:40;95501.66;;;14.81;100.00
6030;BME280;3043;42.682;23.376;2022-11-03T04:34:10;95506.25;;;14.75;100.00
6030;BME280;3043;42.682;23.376;2022-11-03T04:36:36;95501.97;;;14.72;100.00
6030;BME280;3043;42.682;23.376;2022-11-03T04:39:12;95500.56;;;14.62;100.00
6030;BME280;3043;42.682;23.376;2022-11-03T04:41:39;95499.50;;;14.68;100.00
6030;BME280;3043;42.682;23.376;2022-11-03T04:44:12;95498.47;;;14.73;100.00
6030;BME280;3043;42.682;23.376;2022-11-03T04:46:38;95499.31;;;14.74;100.00
6030;BME280;3043;42.682;23.376;2022-11-03T04:49:04;95508.09;;;14.71;100.00
6030;BME280;3043;42.682;23.376;2022-11-03T04:51:32;95502.47;;;14.57;100.00
6030;BME280;3043;42.682;23.376;2022-11-03T04:54:14;95506.84;;;14.29;100.00
6030;BME280;3043;42.682;23.376;2022-11-03T04:56:42;95501.78;;;14.23;100.00
6030;BME280;3043;42.682;23.376;2022-11-03T04:59:12;95499.31;;;14.18;100.00
6030;BME280;3043;42.682;23.376;2022-11-03T05:01:38;95504.59;;;13.88;100.00
6030;BME280;3043;42.682;23.376;2022-11-03T05:04:11;95510.44;;;13.96;100.00
6030;BME280;3043;42.682;23.376;2022-11-03T05:06:37;95503.31;;;14.01;100.00
6030;BME280;3043;42.682;23.376;2022-11-03T05:09:17;95506.88;;;13.98;100.00
6030;BME280;3043;42.682;23.376;2022-11-03T05:11:46;95510.25;;;14.02;100.00
6030;BME280;3043;42.682;23.376;2022-11-03T05:14:28;95518.81;;;13.75;100.00
6030;BME280;3043;42.682;23.376;2022-11-03T05:16:56;95516.44;;;13.67;100.00
6030;BME280;3043;42.682;23.376;2022-11-03T05:21:49;95521.69;;;13.66;100.00
6030;BME280;3043;42.682;23.376;2022-11-03T05:24:18;95513.22;;;13.90;100.00
6030;BME280;3043;42.682;23.376;2022-11-03T05:26:45;95528.81;;;13.90;100.00
6030;BME280;3043;42.682;23.376;2022-11-03T05:29:21;95520.19;;;14.17;100.00
6030;BME280;3043;42.682;23.376;2022-11-03T05:31:49;95525.66;;;14.37;100.00
6030;BME280;3043;42.682;23.376;2022-11-03T05:36:46;95531.84;;;14.62;100.00
6030;BME280;3043;42.682;23.376;2022-11-03T05:41:50;95527.81;;;15.30;100.00
6030;BME280;3043;42.682;23.376;2022-11-03T05:44:30;95538.38;;;15.76;100.00
6030;BME280;3043;42.682;23.376;2022-11-03T05:46:58;95553.09;;;16.25;100.00
6030;BME280;3043;42.682;23.376;2022-11-03T05:49:24;95549.75;;;16.68;100.00
6030;BME280;3043;42.682;23.376;2022-11-03T05:51:51;95549.06;;;17.06;100.00
6030;BME280;3043;42.682;23.376;2022-11-03T05:54:22;95552.75;;;17.63;99.87
6030;BME280;3043;42.682;23.376;2022-11-03T05:56:48;95560.88;;;17.96;95.20
6030;BME280;3043;42.682;23.376;2022-11-03T05:59:18;95569.78;;;18.51;90.96
6030;BME280;3043;42.682;23.376;2022-11-03T06:01:44;95570.94;;;18.99;85.24
6030;BME280;3043;42.682;23.376;2022-11-03T06:04:30;95569.56;;;19.28;77.05
6030;BME280;3043;42.682;23.376;2022-11-03T06:07:25;95566.97;;;19.45;76.71
6030;BME280;3043;42.682;23.376;2022-11-03T06:09:52;95572.91;;;19.49;73.47
6030;BME280;3043;42.682;23.376;2022-11-03T06:12:19;95578.38;;;19.78;72.67
6030;BME280;3043;42.682;23.376;2022-11-03T06:14:45;95584.81;;;20.07;68.94
6030;BME280;3043;42.682;23.376;2022-11-03T06:19:45;95579.81;;;20.35;67.72
6030;BME280;3043;42.682;23.376;2022-11-03T06:22:18;95585.72;;;20.55;70.15
6030;BME280;3043;42.682;23.376;2022-11-03T06:24:45;95579.94;;;20.80;67.70
6030;BME280;3043;42.682;23.376;2022-11-03T06:27:15;95585.22;;;20.80;69.57
6030;BME280;3043;42.682;23.376;2022-11-03T06:29:49;95582.69;;;20.94;66.11
6030;BME280;3043;42.682;23.376;2022-11-03T06:32:16;95593.56;;;21.35;63.66
6030;BME280;3043;42.682;23.376;2022-11-03T06:34:51;95604.31;;;21.61;61.74
6030;BME280;3043;42.682;23.376;2022-11-03T06:37:31;95601.59;;;22.22;60.17
6030;BME280;3043;42.682;23.376;2022-11-03T06:42:51;95601.22;;;21.84;60.37
6030;BME280;3043;42.682;23.376;2022-11-03T06:45:20;95604.13;;;21.80;61.03
6030;BME280;3043;42.682;23.376;2022-11-03T06:47:46;95605.81;;;22.10;60.57
6030;BME280;3043;42.682;23.376;2022-11-03T06:50:22;95603.19;;;22.38;58.19
6030;BME280;3043;42.682;23.376;2022-11-03T06:52:49;95601.25;;;21.98;60.32
6030;BME280;3043;42.682;23.376;2022-11-03T06:55:27;95602.16;;;22.27;59.71
6030;BME280;3043;42.682;23.376;2022-11-03T06:58:09;95603.69;;;22.59;60.11
6030;BME280;3043;42.682;23.376;2022-11-03T07:00:39;95600.00;;;23.04;56.56
6030;BME280;3043;42.682;23.376;2022-11-03T07:05:48;95603.72;;;23.81;54.75
6030;BME280;3043;42.682;23.376;2022-11-03T07:08:21;95597.91;;;24.15;53.61
6030;BME280;3043;42.682;23.376;2022-11-03T07:10:49;95590.72;;;24.80;52.36
6030;BME280;3043;42.682;23.376;2022-11-03T07:13:19;95585.41;;;25.28;51.30
6030;BME280;3043;42.682;23.376;2022-11-03T07:15:47;95595.53;;;26.17;48.21
6030;BME280;3043;42.682;23.376;2022-11-03T07:18:29;95591.25;;;26.50;46.53
6030;BME280;3043;42.682;23.376;2022-11-03T07:20:56;95592.41;;;26.80;46.67
6030;BME280;3043;42.682;23.376;2022-11-03T07:23:24;95588.19;;;27.33;44.09
6030;BME280;3043;42.682;23.376;2022-11-03T07:25:53;95597.22;;;27.41;43.51
6030;BME280;3043;42.682;23.376;2022-11-03T07:28:23;95596.16;;;27.11;43.72
6030;BME280;3043;42.682;23.376;2022-11-03T07:30:49;95593.63;;;26.20;45.38
6030;BME280;3043;42.682;23.376;2022-11-03T07:33:26;95591.72;;;26.44;45.54
6030;BME280;3043;42.682;23.376;2022-11-03T07:35:54;95592.41;;;26.13;45.37
6030;BME280;3043;42.682;23.376;2022-11-03T07:38:23;95589.31;;;25.71;46.13
6030;BME280;3043;42.682;23.376;2022-11-03T07:40:50;95589.25;;;24.38;49.63
6030;BME280;3043;42.682;23.376;2022-11-03T07:43:22;95585.53;;;23.76;52.64
6030;BME280;3043;42.682;23.376;2022-11-03T07:45:53;95587.88;;;23.28;55.26
6030;BME280;3043;42.682;23.376;2022-11-03T07:50:49;95587.69;;;23.31;56.59
6030;BME280;3043;42.682;23.376;2022-11-03T07:53:23;95579.06;;;23.41;58.33
6030;BME280;3043;42.682;23.376;2022-11-03T07:55:52;95573.16;;;24.41;55.43
6030;BME280;3043;42.682;23.376;2022-11-03T08:00:44;95569.84;;;25.83;51.00
6030;BME280;3043;42.682;23.376;2022-11-03T08:03:26;95576.31;;;26.60;48.60
6030;BME280;3043;42.682;23.376;2022-11-03T08:05:52;95562.56;;;26.99;47.21
6030;BME280;3043;42.682;23.376;2022-11-03T08:08:18;95568.59;;;27.12;46.37
6030;BME280;3043;42.682;23.376;2022-11-03T08:10:43;95564.56;;;27.50;46.03
6030;BME280;3043;42.682;23.376;2022-11-03T08:13:08;95558.78;;;27.88;44.42
6030;BME280;3043;42.682;23.376;2022-11-03T08:15:34;95550.13;;;27.64;45.13
6030;BME280;3043;42.682;23.376;2022-11-03T08:17:59;95561.19;;;27.91;44.27
6030;BME280;3043;42.682;23.376;2022-11-03T08:20:25;95553.94;;;27.82;43.48
6030;BME280;3043;42.682;23.376;2022-11-03T08:22:50;95545.09;;;28.13;43.03
6030;BME280;3043;42.682;23.376;2022-11-03T08:25:15;95545.94;;;28.34;43.16
6030;BME280;3043;42.682;23.376;2022-11-03T08:27:41;95545.88;;;28.66;42.25
6030;BME280;3043;42.682;23.376;2022-11-03T08:30:06;95543.72;;;29.10;40.90
6030;BME280;3043;42.682;23.376;2022-11-03T08:32:34;95542.06;;;29.28;40.74
6030;BME280;3043;42.682;23.376;2022-11-03T08:34:59;95543.34;;;29.43;40.64
6030;BME280;3043;42.682;23.376;2022-11-03T08:37:25;95534.16;;;29.67;39.80
6030;BME280;3043;42.682;23.376;2022-11-03T08:39:50;95538.56;;;27.54;42.92
6030;BME280;3043;42.682;23.376;2022-11-03T08:42:15;95536.28;;;28.13;42.39
6030;BME280;3043;42.682;23.376;2022-11-03T08:44:41;95540.94;;;28.41;41.24
6030;BME280;3043;42.682;23.376;2022-11-03T08:47:06;95540.09;;;27.67;43.02
6030;BME280;3043;42.682;23.376;2022-11-03T08:49:32;95536.59;;;28.19;42.54
6030;BME280;3043;42.682;23.376;2022-11-03T08:51:57;95544.22;;;28.74;41.31
6030;BME280;3043;42.682;23.376;2022-11-03T08:54:23;95541.28;;;28.47;41.90
6030;BME280;3043;42.682;23.376;2022-11-03T08:56:48;95543.50;;;29.02;40.24
6030;BME280;3043;42.682;23.376;2022-11-03T08:59:13;95543.06;;;29.27;40.20
6030;BME280;3043;42.682;23.376;2022-11-03T09:01:39;95534.53;;;29.53;39.53
6030;BME280;3043;42.682;23.376;2022-11-03T09:04:04;95537.66;;;28.07;40.98
6030;BME280;3043;42.682;23.376;2022-11-03T09:06:29;95534.56;;;28.32;41.61
6030;BME280;3043;42.682;23.376;2022-11-03T09:08:55;95532.44;;;28.26;41.76
6030;BME280;3043;42.682;23.376;2022-11-03T09:11:20;95523.97;;;28.62;41.29
6030;BME280;3043;42.682;23.376;2022-11-03T09:13:46;95534.63;;;28.21;41.23
6030;BME280;3043;42.682;23.376;2022-11-03T09:16:11;95530.47;;;27.87;42.45
6030;BME280;3043;42.682;23.376;2022-11-03T09:18:36;95524.13;;;27.99;41.40
6030;BME280;3043;42.682;23.376;2022-11-03T09:21:02;95516.91;;;27.16;43.21
6030;BME280;3043;42.682;23.376;2022-11-03T09:23:27;95515.44;;;27.34;43.30
6030;BME280;3043;42.682;23.376;2022-11-03T09:25:53;95502.81;;;27.78;42.59
6030;BME280;3043;42.682;23.376;2022-11-03T09:28:18;95506.47;;;28.39;41.56
6030;BME280;3043;42.682;23.376;2022-11-03T09:30:44;95503.78;;;28.99;40.08
6030;BME280;3043;42.682;23.376;2022-11-03T09:33:09;95499.22;;;29.20;39.21
6030;BME280;3043;42.682;23.376;2022-11-03T09:35:34;95505.41;;;29.21;39.31
6030;BME280;3043;42.682;23.376;2022-11-03T09:38:00;95501.25;;;29.57;38.58
6030;BME280;3043;42.682;23.376;2022-11-03T09:40:25;95492.53;;;29.45;38.05
6030;BME280;3043;42.682;23.376;2022-11-03T09:42:51;95487.75;;;29.29;38.66
6030;BME280;3043;42.682;23.376;2022-11-03T09:45:16;95493.78;;;29.51;38.69
6030;BME280;3043;42.682;23.376;2022-11-03T09:47:44;95491.13;;;29.51;38.65
6030;BME280;3043;42.682;23.376;2022-11-03T09:50:15;95485.84;;;29.70;38.14
6030;BME280;3043;42.682;23.376;2022-11-03T09:52:41;95488.63;;;29.59;37.50
6030;BME280;3043;42.682;23.376;2022-11-03T09:55:14;95485.00;;;29.79;36.73
6030;BME280;3043;42.682;23.376;2022-11-03T09:57:42;95482.75;;;29.74;36.21
6030;BME280;3043;42.682;23.376;2022-11-03T10:00:15;95479.38;;;29.82;36.15
6030;BME280;3043;42.682;23.376;2022-11-03T10:02:42;95473.31;;;29.61;36.62
6030;BME280;3043;42.682;23.376;2022-11-03T10:05:12;95472.31;;;29.52;36.83
6030;BME280;3043;42.682;23.376;2022-11-03T10:07:38;95460.13;;;29.69;36.52
6030;BME280;3043;42.682;23.376;2022-11-03T10:10:04;95461.09;;;29.49;36.61
6030;BME280;3043;42.682;23.376;2022-11-03T10:12:35;95454.75;;;29.40;36.96
6030;BME280;3043;42.682;23.376;2022-11-03T10:15:01;95450.44;;;29.49;37.02
6030;BME280;3043;42.682;23.376;2022-11-03T10:17:28;95448.44;;;29.31;36.32
6030;BME280;3043;42.682;23.376;2022-11-03T10:19:55;95444.22;;;29.10;37.63
6030;BME280;3043;42.682;23.376;2022-11-03T10:22:22;95444.50;;;29.16;37.27
6030;BME280;3043;42.682;23.376;2022-11-03T10:24:47;95444.69;;;28.94;37.85
6030;BME280;3043;42.682;23.376;2022-11-03T10:27:24;95429.13;;;28.50;38.20
6030;BME280;3043;42.682;23.376;2022-11-03T10:30:08;95432.53;;;28.52;38.14
6030;BME280;3043;42.682;23.376;2022-11-03T10:32:34;95426.38;;;28.61;38.17
6030;BME280;3043;42.682;23.376;2022-11-03T10:35:00;95418.03;;;28.45;38.12
6030;BME280;3043;42.682;23.376;2022-11-03T10:37:26;95410.84;;;28.36;38.87
6030;BME280;3043;42.682;23.376;2022-11-03T10:39:54;95400.75;;;28.30;38.82
6030;BME280;3043;42.682;23.376;2022-11-03T10:42:25;95403.41;;;28.60;38.44
6030;BME280;3043;42.682;23.376;2022-11-03T10:44:53;95401.50;;;28.91;37.63
6030;BME280;3043;42.682;23.376;2022-11-03T10:47:23;95393.94;;;28.86;37.88
6030;BME280;3043;42.682;23.376;2022-11-03T10:49:49;95395.56;;;28.78;38.53
6030;BME280;3043;42.682;23.376;2022-11-03T10:54:40;95385.22;;;28.84;37.63
6030;BME280;3043;42.682;23.376;2022-11-03T10:57:05;95382.56;;;28.94;36.73
6030;BME280;3043;42.682;23.376;2022-11-03T10:59:33;95381.34;;;29.07;36.34
6030;BME280;3043;42.682;23.376;2022-11-03T11:02:01;95374.63;;;29.22;35.45
6030;BME280;3043;42.682;23.376;2022-11-03T11:04:27;95369.53;;;29.38;35.15
6030;BME280;3043;42.682;23.376;2022-11-03T11:06:52;95367.03;;;29.47;34.64
6030;BME280;3043;42.682;23.376;2022-11-03T11:09:23;95361.97;;;29.43;33.93
6030;BME280;3043;42.682;23.376;2022-11-03T11:17:00;95352.84;;;28.98;34.24
6030;BME280;3043;42.682;23.376;2022-11-03T11:19:27;95354.00;;;28.56;34.63
6030;BME280;3043;42.682;23.376;2022-11-03T11:30:00;95338.91;;;28.66;34.19
6030;BME280;3043;42.682;23.376;2022-11-03T11:37:36;95322.84;;;27.27;35.84
6030;BME280;3043;42.682;23.376;2022-11-03T11:48:31;95306.47;;;26.90;35.29
6030;BME280;3043;42.682;23.376;2022-11-03T11:50:57;95305.81;;;26.98;34.90
6030;BME280;3043;42.682;23.376;2022-11-03T11:53:23;95300.88;;;27.14;35.43
6030;BME280;3043;42.682;23.376;2022-11-03T11:55:56;95305.59;;;27.42;35.83
6030;BME280;3043;42.682;23.376;2022-11-03T12:00:57;95286.69;;;27.24;35.23
6030;BME280;3043;42.682;23.376;2022-11-03T12:03:36;95286.88;;;27.12;35.13
6030;BME280;3043;42.682;23.376;2022-11-03T12:06:03;95283.00;;;27.16;35.51
6030;BME280;3043;42.682;23.376;2022-11-03T12:08:30;95283.25;;;27.13;35.00
6030;BME280;3043;42.682;23.376;2022-11-03T12:11:00;95276.97;;;26.93;35.55
6030;BME280;3043;42.682;23.376;2022-11-03T12:13:56;95273.50;;;26.82;36.08
6030;BME280;3043;42.682;23.376;2022-11-03T12:16:35;95277.63;;;26.86;36.10
6030;BME280;3043;42.682;23.376;2022-11-03T12:21:56;95266.78;;;26.78;35.31
6030;BME280;3043;42.682;23.376;2022-11-03T12:24:33;95265.84;;;26.68;35.48
6030;BME280;3043;42.682;23.376;2022-11-03T12:27:01;95268.97;;;26.73;34.92
6030;BME280;3043;42.682;23.376;2022-11-03T12:29:27;95264.16;;;26.67;35.18
6030;BME280;3043;42.682;23.376;2022-11-03T12:31:53;95253.53;;;26.56;34.96
6030;BME280;3043;42.682;23.376;2022-11-03T12:34:19;95251.41;;;26.50;35.69
6030;BME280;3043;42.682;23.376;2022-11-03T12:36:44;95258.16;;;26.54;35.36
6030;BME280;3043;42.682;23.376;2022-11-03T12:39:10;95251.75;;;26.56;34.94
6030;BME280;3043;42.682;23.376;2022-11-03T12:41:36;95245.69;;;26.34;34.19
6030;BME280;3043;42.682;23.376;2022-11-03T12:44:02;95241.78;;;26.38;34.63
6030;BME280;3043;42.682;23.376;2022-11-03T12:46:27;95245.19;;;26.40;33.92
6030;BME280;3043;42.682;23.376;2022-11-03T12:48:53;95243.81;;;26.13;35.18
6030;BME280;3043;42.682;23.376;2022-11-03T12:51:20;95239.84;;;26.08;35.83
6030;BME280;3043;42.682;23.376;2022-11-03T12:53:46;95238.03;;;25.97;36.04
6030;BME280;3043;42.682;23.376;2022-11-03T12:56:13;95235.88;;;26.02;35.67
6030;BME280;3043;42.682;23.376;2022-11-03T12:58:39;95238.97;;;25.96;36.49
6030;BME280;3043;42.682;23.376;2022-11-03T13:01:05;95231.28;;;25.93;36.70
6030;BME280;3043;42.682;23.376;2022-11-03T13:03:31;95234.44;;;25.98;35.95
6030;BME280;3043;42.682;23.376;2022-11-03T13:05:58;95234.09;;;25.70;36.45
6030;BME280;3043;42.682;23.376;2022-11-03T13:08:24;95225.78;;;25.52;36.25
6030;BME280;3043;42.682;23.376;2022-11-03T13:10:50;95236.16;;;25.33;36.85
6030;BME280;3043;42.682;23.376;2022-11-03T13:13:16;95226.84;;;25.28;37.30
6030;BME280;3043;42.682;23.376;2022-11-03T13:15:42;95223.09;;;25.19;37.60
6030;BME280;3043;42.682;23.376;2022-11-03T13:18:08;95227.13;;;24.90;37.84
6030;BME280;3043;42.682;23.376;2022-11-03T13:20:34;95226.16;;;24.80;37.38
6030;BME280;3043;42.682;23.376;2022-11-03T13:23:03;95212.44;;;24.75;37.85
6030;BME280;3043;42.682;23.376;2022-11-03T13:25:29;95210.47;;;24.66;37.97
6030;BME280;3043;42.682;23.376;2022-11-03T13:27:54;95216.66;;;24.54;38.29
6030;BME280;3043;42.682;23.376;2022-11-03T13:30:25;95215.69;;;24.44;38.17
6030;BME280;3043;42.682;23.376;2022-11-03T13:32:51;95218.06;;;24.36;38.40
6030;BME280;3043;42.682;23.376;2022-11-03T13:35:17;95214.06;;;24.30;38.17
6030;BME280;3043;42.682;23.376;2022-11-03T13:37:42;95221.09;;;24.19;38.42
6030;BME280;3043;42.682;23.376;2022-11-03T13:40:09;95212.63;;;24.03;38.92
6030;BME280;3043;42.682;23.376;2022-11-03T13:42:36;95218.53;;;23.94;38.92
6030;BME280;3043;42.682;23.376;2022-11-03T13:45:02;95210.53;;;23.95;38.88
6030;BME280;3043;42.682;23.376;2022-11-03T13:47:27;95204.69;;;23.67;39.28
6030;BME280;3043;42.682;23.376;2022-11-03T13:49:53;95206.41;;;23.43;39.60
6030;BME280;3043;42.682;23.376;2022-11-03T13:52:18;95205.59;;;23.30;39.87
6030;BME280;3043;42.682;23.376;2022-11-03T13:54:44;95199.78;;;23.37;39.98
6030;BME280;3043;42.682;23.376;2022-11-03T13:57:10;95200.09;;;23.45;39.72
6030;BME280;3043;42.682;23.376;2022-11-03T13:59:35;95194.81;;;23.33;39.72
6030;BME280;3043;42.682;23.376;2022-11-03T14:02:01;95203.09;;;22.91;40.65
6030;BME280;3043;42.682;23.376;2022-11-03T14:04:27;95202.13;;;23.04;40.75
6030;BME280;3043;42.682;23.376;2022-11-03T14:06:52;95205.19;;;22.86;40.91
6030;BME280;3043;42.682;23.376;2022-11-03T14:09:18;95201.78;;;22.83;40.99
6030;BME280;3043;42.682;23.376;2022-11-03T14:11:43;95202.84;;;22.68;41.05
6030;BME280;3043;42.682;23.376;2022-11-03T14:14:27;95207.69;;;22.74;41.33
6030;BME280;3043;42.682;23.376;2022-11-03T14:16:53;95205.69;;;22.65;41.52
6030;BME280;3043;42.682;23.376;2022-11-03T14:19:18;95194.81;;;22.70;41.00
6030;BME280;3043;42.682;23.376;2022-11-03T14:21:44;95201.16;;;22.67;40.99
6030;BME280;3043;42.682;23.376;2022-11-03T14:24:09;95207.06;;;22.58;41.12
6030;BME280;3043;42.682;23.376;2022-11-03T14:26:35;95207.22;;;22.43;41.60
6030;BME280;3043;42.682;23.376;2022-11-03T14:29:00;95209.97;;;22.41;41.67
6030;BME280;3043;42.682;23.376;2022-11-03T14:31:34;95207.66;;;22.49;41.73
6030;BME280;3043;42.682;23.376;2022-11-03T14:34:05;95197.09;;;22.37;41.41